Time;durP1;ratioP1;P1;durP2;ratioP2;P2;SDS_P1;SDS_P2;PMS_P1;PMS_P2;Temp;Humidity;BMP_temperature;BMP_pressure;BME280_temperature;BME280_humidity;BME280_pressure;Samples;Min_cycle;Max_cycle;Signal;HPM_P1;HPM_P2
2021/03/18 00:00:27;;;;;;;7.37;3.80;;;1.30;99.90;;;;;;5030074;28;20203;-79
2021/03/18 00:03:15;;;;;;;12.97;4.10;;;1.20;99.90;;;;;;5025327;28;20562;-79
2021/03/18 00:06:01;;;;;;;8.47;4.60;;;1.20;99.90;;;;;;5033776;28;20231;-79
2021/03/18 00:08:46;;;;;;;12.57;4.00;;;1.20;99.90;;;;;;5027688;28;20250;-78
2021/03/18 00:11:31;;;;;;;12.07;3.80;;;1.10;99.90;;;;;;5044789;28;20289;-80
2021/03/18 00:14:18;;;;;;;12.80;4.13;;;1.10;99.90;;;;;;5057395;28;20207;-80
2021/03/18 00:17:04;;;;;;;8.13;3.53;;;1.10;99.90;;;;;;5032931;28;20226;-79
2021/03/18 00:19:49;;;;;;;5.70;2.80;;;1.00;99.90;;;;;;5020974;28;20255;-79
2021/03/18 00:22:36;;;;;;;11.63;3.13;;;1.00;99.90;;;;;;5035369;28;20230;-79
2021/03/18 00:25:20;;;;;;;11.67;3.23;;;1.00;99.90;;;;;;5032393;28;20226;-79
2021/03/18 00:28:06;;;;;;;15.13;3.07;;;0.90;99.90;;;;;;5026147;28;20200;-79
2021/03/18 00:30:51;;;;;;;5.87;2.93;;;0.90;99.90;;;;;;5029218;28;20215;-80
2021/03/18 00:33:36;;;;;;;9.90;3.27;;;0.80;99.90;;;;;;5034930;28;20215;-80
2021/03/18 00:36:22;;;;;;;6.60;2.83;;;0.80;99.90;;;;;;5028995;28;20223;-80
2021/03/18 00:39:08;;;;;;;5.97;2.60;;;0.80;99.90;;;;;;5037592;28;20287;-80
2021/03/18 00:41:53;;;;;;;6.27;2.87;;;0.80;99.90;;;;;;5037002;28;20206;-79
2021/03/18 00:44:38;;;;;;;10.00;3.70;;;0.70;99.90;;;;;;5038038;28;20266;-79
2021/03/18 00:47:23;;;;;;;12.50;3.03;;;0.70;99.90;;;;;;5031592;28;20223;-80
2021/03/18 00:50:10;;;;;;;7.00;2.80;;;0.60;99.90;;;;;;5022862;28;20536;-80
2021/03/18 00:52:56;;;;;;;10.67;3.80;;;0.60;99.90;;;;;;5022256;28;20208;-79
2021/03/18 00:55:41;;;;;;;7.70;3.43;;;0.60;99.90;;;;;;5022799;28;20684;-79
2021/03/18 00:58:26;;;;;;;14.93;3.40;;;0.50;99.90;;;;;;5026560;28;20255;-81
2021/03/18 01:01:13;;;;;;;9.17;3.67;;;0.50;99.90;;;;;;5027677;28;20255;-81
2021/03/18 01:03:59;;;;;;;6.37;3.40;;;0.50;99.90;;;;;;5028163;28;20311;-79
2021/03/18 01:06:45;;;;;;;9.83;3.57;;;0.40;99.90;;;;;;5025920;28;20271;-79
2021/03/18 01:09:29;;;;;;;8.17;4.20;;;0.40;99.90;;;;;;5031559;28;20207;-80
2021/03/18 01:12:14;;;;;;;13.10;3.97;;;0.40;99.90;;;;;;5039857;28;20215;-79
2021/03/18 01:14:59;;;;;;;11.87;5.43;;;0.40;99.90;;;;;;5034647;28;20202;-80
2021/03/18 01:17:44;;;;;;;13.33;4.40;;;0.30;99.90;;;;;;5032166;28;20271;-80
2021/03/18 01:20:29;;;;;;;14.23;4.83;;;0.30;99.90;;;;;;5028522;28;20579;-79
2021/03/18 01:23:15;;;;;;;9.50;4.47;;;0.30;99.90;;;;;;5029954;28;20564;-80
2021/03/18 01:26:00;;;;;;;10.63;4.47;;;0.30;99.90;;;;;;5031380;28;21462;-80
2021/03/18 01:28:46;;;;;;;13.77;4.27;;;0.30;99.90;;;;;;5026416;28;20250;-80
2021/03/18 01:31:31;;;;;;;10.07;4.60;;;0.30;99.90;;;;;;5022696;28;20664;-78
2021/03/18 01:34:16;;;;;;;10.53;4.50;;;0.20;99.90;;;;;;5034525;28;20219;-79
2021/03/18 01:37:00;;;;;;;10.03;3.67;;;0.20;99.90;;;;;;5034660;28;20303;-79
2021/03/18 01:39:46;;;;;;;10.57;4.67;;;0.20;99.90;;;;;;5028537;28;20239;-80
2021/03/18 01:42:30;;;;;;;13.43;4.50;;;0.20;99.90;;;;;;5030085;28;20576;-79
2021/03/18 01:45:16;;;;;;;15.50;4.13;;;0.20;99.90;;;;;;5034791;28;20270;-78
2021/03/18 01:48:02;;;;;;;14.73;4.90;;;0.20;99.90;;;;;;5016863;28;20580;-80
2021/03/18 01:50:47;;;;;;;13.70;5.40;;;0.20;99.90;;;;;;5033274;28;20242;-79
2021/03/18 01:53:33;;;;;;;15.53;5.27;;;0.30;99.90;;;;;;5027139;28;20203;-79
2021/03/18 01:56:19;;;;;;;11.50;4.53;;;0.30;99.90;;;;;;5026960;28;20651;-80
2021/03/18 01:59:04;;;;;;;12.70;4.57;;;0.30;99.90;;;;;;5023159;28;20608;-79
2021/03/18 02:01:49;;;;;;;16.47;4.30;;;0.30;99.90;;;;;;5024848;28;20210;-80
2021/03/18 02:04:34;;;;;;;11.77;4.83;;;0.40;99.90;;;;;;5019947;28;20719;-79
2021/03/18 02:07:19;;;;;;;8.60;4.80;;;0.40;99.90;;;;;;5027087;28;20275;-80
2021/03/18 02:10:04;;;;;;;12.93;4.50;;;0.40;99.90;;;;;;5022800;28;20228;-79
2021/03/18 02:12:51;;;;;;;11.13;4.70;;;0.40;99.90;;;;;;5021164;28;20210;-80
2021/03/18 02:15:39;;;;;;;10.87;4.77;;;0.40;99.90;;;;;;5029278;28;20560;-79
2021/03/18 02:18:33;;;;;;;10.03;4.83;;;0.40;99.90;;;;;;5026414;28;20311;-80
2021/03/18 02:21:55;;;;;;;10.33;4.43;;;0.40;99.90;;;;;;5024398;28;20209;-80
2021/03/18 02:24:50;;;;;;;11.17;4.47;;;0.40;99.90;;;;;;5023013;28;20291;-80
2021/03/18 02:28:21;;;;;;;14.13;5.50;;;0.40;99.90;;;;;;5023924;28;20302;-78
2021/03/18 02:31:11;;;;;;;15.43;5.37;;;0.40;99.90;;;;;;5026531;28;20336;-80
2021/03/18 02:34:21;;;;;;;7.60;4.80;;;0.50;99.90;;;;;;5025607;28;20203;-80
2021/03/18 02:37:08;;;;;;;11.93;5.17;;;0.40;99.90;;;;;;5027398;28;20227;-79
2021/03/18 02:40:00;;;;;;;13.80;5.50;;;0.50;99.90;;;;;;5030794;28;20212;-78
2021/03/18 02:42:48;;;;;;;14.83;5.00;;;0.50;99.90;;;;;;5037772;28;20211;-79
2021/03/18 02:45:36;;;;;;;11.13;5.13;;;0.50;99.90;;;;;;5028329;28;20263;-79
2021/03/18 02:48:24;;;;;;;13.03;5.20;;;0.50;99.90;;;;;;5039239;28;20216;-78
2021/03/18 02:51:14;;;;;;;13.43;5.47;;;0.50;99.90;;;;;;5024978;28;20238;-80
2021/03/18 02:54:04;;;;;;;14.93;6.17;;;0.50;99.90;;;;;;5026515;28;20203;-78
2021/03/18 02:56:50;;;;;;;12.50;6.13;;;0.50;99.90;;;;;;5032402;28;20751;-79
2021/03/18 02:59:39;;;;;;;19.20;6.70;;;0.50;99.90;;;;;;5052652;28;20207;-80
2021/03/18 03:02:28;;;;;;;21.00;6.50;;;0.50;99.90;;;;;;5041996;28;20199;-79
2021/03/18 03:05:14;;;;;;;16.20;6.57;;;0.50;99.90;;;;;;5047640;28;20269;-79
2021/03/18 03:08:01;;;;;;;11.90;6.00;;;0.50;99.90;;;;;;5036827;28;20580;-79
2021/03/18 03:10:49;;;;;;;15.67;6.20;;;0.60;99.90;;;;;;5038896;28;20283;-79
2021/03/18 03:13:37;;;;;;;17.07;6.57;;;0.60;99.90;;;;;;5050978;28;20207;-78
2021/03/18 03:16:23;;;;;;;18.33;7.37;;;0.60;99.90;;;;;;5043033;28;20287;-78
2021/03/18 03:19:10;;;;;;;16.83;7.23;;;0.60;99.90;;;;;;5022656;28;20254;-79
2021/03/18 03:21:56;;;;;;;11.67;6.97;;;0.60;99.90;;;;;;5026358;28;20276;-78
2021/03/18 03:24:43;;;;;;;18.50;7.37;;;0.60;99.90;;;;;;5026508;28;20207;-79
2021/03/18 03:27:30;;;;;;;18.73;7.23;;;0.70;99.90;;;;;;5051979;28;20235;-79
2021/03/18 03:30:16;;;;;;;15.83;7.60;;;0.70;99.90;;;;;;5039763;28;20270;-79
2021/03/18 03:33:02;;;;;;;16.43;7.33;;;0.70;99.90;;;;;;5017232;28;20205;-79
2021/03/18 03:35:47;;;;;;;12.70;6.47;;;0.80;99.90;;;;;;5030744;28;20226;-80
2021/03/18 03:38:32;;;;;;;23.40;7.27;;;0.80;99.90;;;;;;5027567;28;20569;-78
2021/03/18 03:41:17;;;;;;;13.23;7.10;;;0.80;99.90;;;;;;5022480;28;20580;-79
2021/03/18 03:44:04;;;;;;;13.67;6.57;;;0.80;99.90;;;;;;5028053;28;20210;-79
2021/03/18 03:46:49;;;;;;;24.00;6.90;;;0.90;99.90;;;;;;5030711;28;20230;-79
2021/03/18 03:49:35;;;;;;;17.07;6.17;;;0.90;99.90;;;;;;5026435;28;20684;-78
2021/03/18 03:52:26;;;;;;;18.97;6.53;;;1.00;99.90;;;;;;5027003;28;20695;-78
2021/03/18 03:55:19;;;;;;;13.07;6.23;;;0.90;99.90;;;;;;5024117;28;20216;-78
2021/03/18 03:58:11;;;;;;;16.20;5.70;;;0.90;99.90;;;;;;5017147;28;20203;-79
2021/03/18 04:01:00;;;;;;;15.83;6.10;;;0.90;99.90;;;;;;5034540;28;20203;-79
2021/03/18 04:03:47;;;;;;;14.60;6.00;;;0.90;99.90;;;;;;5015876;28;20254;-78
2021/03/18 04:06:36;;;;;;;13.77;5.50;;;0.80;99.90;;;;;;5031240;28;20235;-78
2021/03/18 04:09:23;;;;;;;11.53;5.77;;;0.80;99.90;;;;;;5034772;28;20211;-78
2021/03/18 04:12:10;;;;;;;9.47;5.70;;;0.80;99.90;;;;;;5029797;28;20259;-79
2021/03/18 04:14:58;;;;;;;15.90;6.30;;;0.80;99.90;;;;;;5027088;28;20207;-79
2021/03/18 04:17:50;;;;;;;9.80;5.50;;;0.80;99.90;;;;;;5033603;28;20623;-79
2021/03/18 04:20:38;;;;;;;14.63;5.60;;;0.80;99.90;;;;;;5026044;28;20200;-79
2021/03/18 04:23:27;;;;;;;12.37;6.13;;;0.80;99.90;;;;;;5026507;28;20264;-80
2021/03/18 04:26:12;;;;;;;16.30;5.90;;;0.80;99.90;;;;;;5024485;28;20695;-79
2021/03/18 04:28:58;;;;;;;14.20;6.00;;;0.70;99.90;;;;;;5040204;28;20207;-78
2021/03/18 04:31:44;;;;;;;21.33;7.13;;;0.70;99.90;;;;;;5034085;28;20226;-79
2021/03/18 04:34:30;;;;;;;12.70;5.97;;;0.70;99.90;;;;;;5037854;28;20202;-79
2021/03/18 04:37:15;;;;;;;10.33;5.40;;;0.70;99.90;;;;;;5044905;28;20227;-79
2021/03/18 04:40:08;;;;;;;14.93;6.57;;;0.70;99.90;;;;;;5035481;28;20210;-80
2021/03/18 04:42:58;;;;;;;12.17;5.83;;;0.70;99.90;;;;;;5018560;28;20216;-80
2021/03/18 04:45:46;;;;;;;11.43;6.57;;;0.70;99.90;;;;;;5035900;28;20232;-80
2021/03/18 04:48:31;;;;;;;17.27;6.70;;;0.60;99.90;;;;;;5028441;28;20264;-79
2021/03/18 04:51:17;;;;;;;18.17;7.00;;;0.60;99.90;;;;;;5042079;28;20207;-77
2021/03/18 04:54:03;;;;;;;12.93;6.77;;;0.60;99.90;;;;;;5045765;28;20287;-79
2021/03/18 04:56:50;;;;;;;18.57;9.47;;;0.70;99.90;;;;;;5035422;28;20238;-79
2021/03/18 04:59:36;;;;;;;17.73;8.90;;;0.70;99.90;;;;;;5041833;28;20207;-80
2021/03/18 05:02:23;;;;;;;16.60;8.63;;;0.60;99.90;;;;;;5029239;28;20208;-80
2021/03/18 05:05:12;;;;;;;14.70;8.93;;;0.70;99.90;;;;;;5028906;28;20238;-80
2021/03/18 05:07:59;;;;;;;18.17;10.00;;;0.70;99.90;;;;;;5042689;28;20208;-79
2021/03/18 05:10:46;;;;;;;22.00;11.53;;;0.70;99.90;;;;;;5027249;28;20262;-79
2021/03/18 05:13:31;;;;;;;24.17;11.00;;;0.70;99.90;;;;;;5028236;28;20223;-79
2021/03/18 05:16:17;;;;;;;22.47;11.17;;;0.80;99.90;;;;;;5024561;28;20731;-80
2021/03/18 05:19:02;;;;;;;20.83;11.20;;;0.80;99.90;;;;;;5023920;28;20210;-78
2021/03/18 05:21:49;;;;;;;24.47;10.13;;;0.80;99.90;;;;;;5036802;28;20207;-79
2021/03/18 05:24:37;;;;;;;25.43;11.97;;;0.80;99.90;;;;;;5023000;28;20311;-79
2021/03/18 05:27:22;;;;;;;21.90;11.97;;;0.90;99.90;;;;;;5055717;22;20246;-78
2021/03/18 05:30:09;;;;;;;20.00;11.70;;;1.00;99.90;;;;;;5073143;28;20272;-79
2021/03/18 05:32:55;;;;;;;23.23;12.00;;;1.00;99.90;;;;;;5070684;28;20268;-79
2021/03/18 05:35:41;;;;;;;22.53;10.77;;;1.00;99.90;;;;;;5073851;28;20247;-78
2021/03/18 05:38:26;;;;;;;20.50;11.73;;;1.00;99.90;;;;;;5053666;28;20250;-79
2021/03/18 05:41:15;;;;;;;19.93;11.17;;;1.10;99.90;;;;;;5053053;28;20231;-81
2021/03/18 05:44:00;;;;;;;23.93;12.20;;;1.20;99.90;;;;;;5045332;28;20211;-80
2021/03/18 05:46:46;;;;;;;23.37;10.27;;;1.20;99.90;;;;;;5042731;28;20721;-79
2021/03/18 05:49:32;;;;;;;23.90;12.57;;;1.30;99.90;;;;;;5053569;28;20725;-79
2021/03/18 05:52:18;;;;;;;19.87;11.57;;;1.30;99.90;;;;;;5048876;28;20250;-80
2021/03/18 05:55:06;;;;;;;28.40;12.87;;;1.30;99.90;;;;;;5051304;28;20202;-80
2021/03/18 05:57:52;;;;;;;20.33;12.63;;;1.30;99.90;;;;;;5049312;28;20705;-79
2021/03/18 06:00:37;;;;;;;22.93;11.40;;;1.40;99.90;;;;;;5048629;28;20265;-79
2021/03/18 06:03:22;;;;;;;21.53;11.97;;;1.40;99.90;;;;;;5055301;28;20210;-80
2021/03/18 06:06:08;;;;;;;23.80;11.87;;;1.40;99.90;;;;;;5051372;28;20608;-80
2021/03/18 06:08:53;;;;;;;24.23;13.23;;;1.50;99.90;;;;;;5049620;28;20253;-79
2021/03/18 06:11:40;;;;;;;22.37;13.63;;;1.50;99.90;;;;;;5049329;28;20210;-79
2021/03/18 06:14:26;;;;;;;21.63;13.90;;;1.50;99.90;;;;;;5054005;28;20211;-80
2021/03/18 06:17:11;;;;;;;29.00;13.60;;;1.50;99.90;;;;;;5040166;28;20294;-76
2021/03/18 06:19:57;;;;;;;30.93;15.03;;;1.50;99.90;;;;;;5048129;28;20215;-77
2021/03/18 06:22:44;;;;;;;26.53;15.00;;;1.60;99.90;;;;;;5046149;28;20698;-77
2021/03/18 06:25:32;;;;;;;29.93;16.90;;;1.60;99.90;;;;;;5038178;28;20859;-77
2021/03/18 06:28:19;;;;;;;26.97;16.23;;;1.60;99.90;;;;;;5047211;28;20674;-76
2021/03/18 06:31:06;;;;;;;34.33;15.53;;;1.70;99.90;;;;;;5052602;28;20214;-77
2021/03/18 06:33:52;;;;;;;26.03;14.97;;;1.70;99.90;;;;;;5044125;28;20211;-77
2021/03/18 06:36:36;;;;;;;33.67;16.83;;;1.70;99.90;;;;;;5038999;28;20281;-77
2021/03/18 06:39:21;;;;;;;40.50;17.40;;;1.80;99.90;;;;;;5041490;28;20246;-76
2021/03/18 06:42:13;;;;;;;31.37;17.70;;;1.80;99.90;;;;;;5043365;28;20632;-77
2021/03/18 06:45:07;;;;;;;32.10;18.27;;;1.90;99.90;;;;;;5043476;28;20740;-78
2021/03/18 06:47:55;;;;;;;45.53;21.67;;;1.90;99.90;;;;;;5044440;28;20736;-81
2021/03/18 06:50:41;;;;;;;35.87;20.17;;;2.00;99.90;;;;;;5039539;28;20698;-80
2021/03/18 06:53:28;;;;;;;36.60;21.23;;;2.00;99.90;;;;;;5038087;28;20291;-80
2021/03/18 06:56:22;;;;;;;35.20;19.43;;;2.10;99.90;;;;;;5040000;28;20282;-82
2021/03/18 06:59:22;;;;;;;31.87;20.77;;;2.10;99.90;;;;;;5043378;28;20249;-80
2021/03/18 07:02:08;;;;;;;41.80;22.33;;;2.20;99.90;;;;;;5045946;28;20222;-82
2021/03/18 07:04:56;;;;;;;48.57;22.87;;;2.30;99.90;;;;;;5043384;28;20250;-80
2021/03/18 07:07:40;;;;;;;33.80;21.40;;;2.30;99.90;;;;;;5044433;28;20296;-82
2021/03/18 07:10:39;;;;;;;40.50;21.30;;;2.40;99.90;;;;;;5047365;28;20241;-79
2021/03/18 07:13:27;;;;;;;41.93;21.80;;;2.50;99.90;;;;;;5039565;28;20254;-83
2021/03/18 07:16:13;;;;;;;38.87;22.33;;;2.50;99.90;;;;;;5046366;28;20584;-80
2021/03/18 07:18:58;;;;;;;45.20;25.23;;;2.60;99.90;;;;;;5043017;28;20290;-79
2021/03/18 07:21:44;;;;;;;46.60;24.27;;;2.70;99.90;;;;;;5041767;28;20203;-81
2021/03/18 07:24:33;;;;;;;55.53;25.43;;;2.80;99.90;;;;;;5051123;28;20329;-81
2021/03/18 07:27:18;;;;;;;48.73;25.80;;;2.80;99.90;;;;;;5040930;28;20295;-80
2021/03/18 07:30:03;;;;;;;49.63;27.93;;;2.90;99.90;;;;;;5052611;28;20264;-80
2021/03/18 07:32:51;;;;;;;51.50;29.20;;;3.00;99.90;;;;;;5054178;28;20335;-79
2021/03/18 07:35:37;;;;;;;55.10;30.63;;;3.10;99.90;;;;;;5051667;28;20199;-80
2021/03/18 07:38:22;;;;;;;52.83;30.13;;;3.20;99.90;;;;;;5064240;28;20261;-82
2021/03/18 07:41:13;;;;;;;54.47;31.00;;;3.30;99.90;;;;;;5064383;28;20299;-80
2021/03/18 07:43:59;;;;;;;56.03;33.43;;;3.40;99.90;;;;;;5049928;28;20203;-79
2021/03/18 07:46:46;;;;;;;58.10;33.53;;;3.50;99.90;;;;;;5042844;28;20607;-80
2021/03/18 07:49:37;;;;;;;49.83;29.17;;;3.70;99.90;;;;;;5056315;28;20285;-80
2021/03/18 07:52:25;;;;;;;47.70;28.77;;;3.80;99.90;;;;;;5046830;28;20818;-78
2021/03/18 07:55:16;;;;;;;42.33;27.30;;;3.90;99.90;;;;;;5041208;28;20235;-80
2021/03/18 07:58:01;;;;;;;43.33;25.03;;;4.00;99.90;;;;;;5049202;28;20282;-79
2021/03/18 08:00:46;;;;;;;36.77;23.23;;;4.10;99.90;;;;;;5047847;28;20223;-79
2021/03/18 08:03:31;;;;;;;37.53;25.17;;;4.10;99.90;;;;;;5054156;28;20207;-77
2021/03/18 08:06:46;;;;;;;36.70;24.13;;;4.20;99.90;;;;;;5045735;28;20250;-80
2021/03/18 08:09:58;;;;;;;33.60;23.63;;;4.30;99.90;;;;;;5044654;28;20215;-80
2021/03/18 08:12:50;;;;;;;37.10;27.33;;;4.40;99.90;;;;;;5041462;28;20246;-79
2021/03/18 08:15:46;;;;;;;45.93;30.73;;;4.50;99.90;;;;;;5041846;28;20290;-80
2021/03/18 08:18:41;;;;;;;48.50;32.53;;;4.60;99.90;;;;;;5047923;28;20254;-79
2021/03/18 08:21:37;;;;;;;59.27;33.93;;;4.70;99.90;;;;;;5048106;28;20925;-80
2021/03/18 08:24:24;;;;;;;44.23;27.23;;;4.80;99.90;;;;;;5040505;28;20760;-81
2021/03/18 08:27:09;;;;;;;47.30;28.53;;;5.00;99.90;;;;;;5048217;28;20238;-80
2021/03/18 08:29:55;;;;;;;39.43;26.60;;;5.10;99.90;;;;;;5051584;28;20253;-80
2021/03/18 08:32:39;;;;;;;33.93;24.67;;;5.20;99.90;;;;;;5042798;28;20293;-79
2021/03/18 08:35:28;;;;;;;37.63;22.13;;;5.40;99.90;;;;;;5049406;28;20695;-80
2021/03/18 08:38:14;;;;;;;29.97;18.50;;;5.50;99.90;;;;;;5052494;28;20328;-80
2021/03/18 08:41:00;;;;;;;30.73;18.10;;;5.60;99.90;;;;;;5041127;28;20199;-79
2021/03/18 08:44:17;;;;;;;25.33;16.93;;;5.70;99.90;;;;;;5050858;28;20214;-80
2021/03/18 08:47:05;;;;;;;29.03;16.93;;;5.80;99.90;;;;;;5044795;28;20227;-81
2021/03/18 08:49:49;;;;;;;27.07;17.00;;;5.90;99.90;;;;;;5038795;28;20214;-80
2021/03/18 08:52:40;;;;;;;24.63;14.03;;;5.90;99.90;;;;;;5048526;28;20206;-80
2021/03/18 08:55:37;;;;;;;22.07;13.30;;;6.00;99.90;;;;;;5055798;28;20242;-80
2021/03/18 08:58:22;;;;;;;18.63;12.30;;;6.10;99.90;;;;;;5049791;28;20261;-79
2021/03/18 09:01:14;;;;;;;24.53;12.93;;;6.10;99.90;;;;;;5050470;28;20272;-79
2021/03/18 09:04:00;;;;;;;22.20;12.57;;;6.20;99.90;;;;;;5053338;28;20211;-78
2021/03/18 09:06:47;;;;;;;21.57;12.23;;;6.20;99.90;;;;;;5051551;28;20288;-80
2021/03/18 09:09:33;;;;;;;19.50;11.00;;;6.30;99.90;;;;;;5058131;28;20283;-79
2021/03/18 09:12:18;;;;;;;21.90;12.33;;;6.30;99.90;;;;;;5043866;28;20261;-80
2021/03/18 09:15:15;;;;;;;21.27;11.93;;;6.30;99.90;;;;;;5052028;28;20207;-79
2021/03/18 09:18:11;;;;;;;20.27;12.87;;;6.40;99.90;;;;;;5045460;28;20250;-79
2021/03/18 09:20:59;;;;;;;27.40;13.50;;;6.40;99.90;;;;;;5042638;28;20211;-80
2021/03/18 09:23:45;;;;;;;21.57;12.77;;;6.50;99.90;;;;;;5047141;28;20215;-80
2021/03/18 09:26:30;;;;;;;22.07;12.83;;;6.60;99.90;;;;;;5048373;28;20725;-80
2021/03/18 09:29:15;;;;;;;21.20;12.83;;;6.70;99.90;;;;;;5050013;28;20199;-79
2021/03/18 09:32:06;;;;;;;18.87;11.33;;;6.80;99.90;;;;;;5051439;28;20242;-80
2021/03/18 09:34:51;;;;;;;21.47;11.93;;;6.90;99.90;;;;;;5056198;28;20218;-79
2021/03/18 09:37:38;;;;;;;20.33;11.67;;;7.10;99.90;;;;;;5055890;28;20736;-79
2021/03/18 09:40:34;;;;;;;21.53;9.83;;;7.20;99.90;;;;;;5054556;28;20207;-79
2021/03/18 09:43:21;;;;;;;19.67;9.47;;;7.30;99.90;;;;;;5049258;28;20254;-80
2021/03/18 09:46:08;;;;;;;21.20;8.90;;;7.40;99.90;;;;;;5039957;28;20217;-80
2021/03/18 09:48:52;;;;;;;19.37;10.13;;;7.50;99.90;;;;;;5055182;28;20291;-80
2021/03/18 09:51:39;;;;;;;18.40;9.87;;;7.60;99.90;;;;;;5057726;28;20214;-80
2021/03/18 09:54:26;;;;;;;20.03;10.50;;;7.70;99.90;;;;;;5036899;28;20580;-80
2021/03/18 09:57:11;;;;;;;24.83;12.00;;;7.80;99.90;;;;;;5042765;28;20243;-82
2021/03/18 09:59:57;;;;;;;20.50;10.40;;;7.90;99.90;;;;;;5046904;28;20208;-79
2021/03/18 10:02:42;;;;;;;18.80;8.60;;;8.00;99.90;;;;;;5040395;28;20223;-79
2021/03/18 10:05:27;;;;;;;20.47;8.07;;;8.10;99.90;;;;;;5048333;28;20310;-78
2021/03/18 10:08:11;;;;;;;21.10;8.83;;;8.20;99.90;;;;;;5046681;28;20230;-79
2021/03/18 10:10:57;;;;;;;24.53;8.33;;;8.30;99.90;;;;;;5053501;28;20330;-80
2021/03/18 10:13:43;;;;;;;21.00;8.00;;;8.40;99.90;;;;;;5043982;28;20228;-80
2021/03/18 10:16:28;;;;;;;17.77;7.57;;;8.50;99.90;;;;;;5050915;28;20709;-80
2021/03/18 10:19:14;;;;;;;24.67;8.43;;;8.60;99.90;;;;;;5048467;28;20245;-81
2021/03/18 10:22:00;;;;;;;25.50;7.30;;;8.70;99.90;;;;;;5041866;28;20719;-80
2021/03/18 10:24:58;;;;;;;25.40;7.97;;;8.80;99.90;;;;;;5049231;28;20237;-80
2021/03/18 10:27:46;;;;;;;21.00;7.10;;;8.90;99.90;;;;;;5060230;28;20322;-81
2021/03/18 10:30:32;;;;;;;20.77;7.00;;;9.00;99.90;;;;;;5045857;28;20286;-80
2021/03/18 10:33:20;;;;;;;26.27;7.90;;;9.10;99.90;;;;;;5046828;28;20214;-80
2021/03/18 10:36:07;;;;;;;22.33;6.30;;;9.20;99.90;;;;;;5040042;28;20712;-78
2021/03/18 10:38:59;;;;;;;22.33;6.80;;;9.30;99.90;;;;;;5051378;28;20222;-81
2021/03/18 10:41:52;;;;;;;23.47;7.07;;;9.50;99.90;;;;;;5052745;28;20678;-80
2021/03/18 10:44:41;;;;;;;17.70;6.43;;;9.60;99.90;;;;;;5049407;28;20215;-80
2021/03/18 10:47:26;;;;;;;18.80;6.57;;;9.80;99.90;;;;;;5053701;28;20239;-80
2021/03/18 10:50:12;;;;;;;16.17;6.03;;;9.90;99.90;;;;;;5055432;28;20626;-80
2021/03/18 10:53:00;;;;;;;19.10;6.27;;;10.00;99.90;;;;;;5049769;28;20238;-80
2021/03/18 10:55:50;;;;;;;17.90;5.73;;;10.20;99.90;;;;;;5058297;28;20605;-80
2021/03/18 10:58:35;;;;;;;19.57;5.90;;;10.30;99.90;;;;;;5064283;28;20210;-80
2021/03/18 11:01:23;;;;;;;25.57;6.70;;;10.40;99.90;;;;;;5051139;28;20723;-78
2021/03/18 11:04:08;;;;;;;20.90;6.47;;;10.50;99.90;;;;;;5046980;28;20211;-80
2021/03/18 11:06:59;;;;;;;17.43;6.37;;;10.60;99.90;;;;;;5050948;28;20242;-80
2021/03/18 11:09:44;;;;;;;17.90;6.50;;;10.70;99.90;;;;;;5055222;28;20385;-80
2021/03/18 11:12:28;;;;;;;22.07;5.97;;;10.70;99.90;;;;;;5046180;28;20207;-80
2021/03/18 11:15:13;;;;;;;24.07;7.47;;;10.70;99.90;;;;;;5053291;28;20544;-78
2021/03/18 11:18:07;;;;;;;23.00;6.20;;;10.70;99.90;;;;;;5054984;28;20237;-79
2021/03/18 11:20:54;;;;;;;19.67;7.23;;;10.70;99.90;;;;;;5064509;28;20613;-80
2021/03/18 11:23:39;;;;;;;24.83;7.50;;;10.70;99.90;;;;;;5061302;28;20207;-80
2021/03/18 11:26:26;;;;;;;21.33;7.57;;;10.70;99.90;;;;;;5066585;28;20374;-80
2021/03/18 11:29:13;;;;;;;20.17;6.87;;;10.70;99.90;;;;;;5060688;23;20225;-79
2021/03/18 11:32:00;;;;;;;18.30;7.50;;;10.70;99.90;;;;;;5055275;28;20301;-79
2021/03/18 11:34:53;;;;;;;21.00;6.83;;;10.70;99.90;;;;;;5055942;28;20300;-81
2021/03/18 11:37:38;;;;;;;20.80;6.97;;;10.80;99.90;;;;;;5044300;28;20610;-79
2021/03/18 11:40:23;;;;;;;23.87;7.10;;;10.80;99.90;;;;;;5026883;28;20212;-79
2021/03/18 11:43:08;;;;;;;17.63;6.57;;;10.90;99.90;;;;;;5035558;28;20254;-79
2021/03/18 11:45:54;;;;;;;24.80;7.50;;;11.00;99.90;;;;;;5026881;28;20558;-80
2021/03/18 11:48:38;;;;;;;20.27;6.70;;;11.20;99.90;;;;;;5040716;28;20259;-79
2021/03/18 11:51:24;;;;;;;22.37;7.03;;;11.30;99.90;;;;;;5035913;28;20215;-79
2021/03/18 11:54:10;;;;;;;21.60;6.97;;;11.40;99.90;;;;;;5032153;28;20269;-81
2021/03/18 11:56:55;;;;;;;20.40;6.93;;;11.50;99.90;;;;;;5022882;28;20199;-80
2021/03/18 11:59:40;;;;;;;14.73;5.63;;;11.50;99.90;;;;;;5024922;28;20223;-79
2021/03/18 12:02:25;;;;;;;26.83;7.70;;;11.50;99.90;;;;;;5036041;28;20254;-80
2021/03/18 12:05:10;;;;;;;23.77;8.30;;;11.50;99.90;;;;;;5021497;28;20208;-79
2021/03/18 12:07:56;;;;;;;21.47;6.77;;;11.40;99.90;;;;;;5031589;28;20229;-79
2021/03/18 12:10:41;;;;;;;24.20;7.27;;;11.30;99.90;;;;;;5018530;28;20216;-79
2021/03/18 12:13:26;;;;;;;18.03;6.87;;;11.20;99.90;;;;;;5027296;28;20581;-79
2021/03/18 12:16:11;;;;;;;22.90;7.37;;;11.10;99.90;;;;;;5022312;28;20239;-79
2021/03/18 12:18:56;;;;;;;20.93;7.20;;;10.90;99.90;;;;;;5026266;28;20266;-79
2021/03/18 12:21:40;;;;;;;25.43;7.33;;;10.80;99.90;;;;;;5030272;28;20255;-82
2021/03/18 12:24:26;;;;;;;26.50;7.80;;;10.70;99.90;;;;;;5024913;28;20215;-83
2021/03/18 12:27:10;;;;;;;26.80;7.13;;;10.60;99.90;;;;;;5031815;28;20230;-81
2021/03/18 12:29:55;;;;;;;23.43;7.37;;;10.50;99.90;;;;;;5035386;28;20622;-81
2021/03/18 12:32:41;;;;;;;23.93;7.93;;;10.40;99.90;;;;;;5032119;28;20287;-82
2021/03/18 12:35:26;;;;;;;24.20;7.53;;;10.40;99.90;;;;;;5036389;28;20314;-81
2021/03/18 12:38:11;;;;;;;22.20;7.63;;;10.30;99.90;;;;;;5045406;28;20251;-81
2021/03/18 12:40:57;;;;;;;23.40;8.10;;;10.20;99.90;;;;;;5048632;28;20211;-80
2021/03/18 12:43:42;;;;;;;19.23;7.43;;;10.20;99.90;;;;;;5032187;28;20286;-81
2021/03/18 12:46:28;;;;;;;26.77;7.73;;;10.20;99.90;;;;;;5025396;28;20238;-81
2021/03/18 12:49:13;;;;;;;22.63;7.23;;;10.10;99.90;;;;;;5038570;28;20250;-81
2021/03/18 12:51:58;;;;;;;21.27;6.77;;;10.20;99.90;;;;;;5040732;28;20210;-81
2021/03/18 12:54:43;;;;;;;22.67;7.57;;;10.20;99.90;;;;;;5040731;28;20231;-81
2021/03/18 12:57:28;;;;;;;25.70;7.37;;;10.30;99.90;;;;;;5037229;28;20267;-82
2021/03/18 13:00:16;;;;;;;24.20;7.33;;;10.40;99.90;;;;;;5033110;28;20246;-80
2021/03/18 13:03:01;;;;;;;20.80;6.20;;;10.50;99.90;;;;;;5034612;28;20215;-82
2021/03/18 13:05:46;;;;;;;20.67;6.67;;;10.60;99.90;;;;;;5038704;28;20204;-82
2021/03/18 13:08:31;;;;;;;17.43;6.53;;;10.70;99.90;;;;;;5037522;28;20731;-81
2021/03/18 13:11:16;;;;;;;19.23;6.13;;;10.80;99.90;;;;;;5037923;28;20206;-81
2021/03/18 13:14:02;;;;;;;21.03;6.90;;;11.00;99.90;;;;;;5025158;28;20206;-83
2021/03/18 13:16:48;;;;;;;20.23;6.27;;;11.10;99.90;;;;;;5032660;28;20243;-82
2021/03/18 13:19:32;;;;;;;21.90;7.20;;;11.30;99.90;;;;;;5038127;28;20227;-82
2021/03/18 13:22:17;;;;;;;20.07;5.93;;;11.40;99.90;;;;;;5026880;28;20608;-82
2021/03/18 13:25:03;;;;;;;21.90;6.77;;;11.50;99.90;;;;;;5035960;28;20223;-82
2021/03/18 13:27:49;;;;;;;21.80;6.73;;;11.60;99.90;;;;;;5017108;28;20223;-82
2021/03/18 13:30:37;;;;;;;21.00;7.23;;;11.70;99.90;;;;;;5034676;28;20210;-82
2021/03/18 13:33:21;;;;;;;17.47;6.07;;;11.70;99.90;;;;;;5036945;28;20231;-82
2021/03/18 13:36:07;;;;;;;17.73;5.87;;;11.80;99.90;;;;;;5046036;28;20203;-81
2021/03/18 13:38:52;;;;;;;16.37;5.57;;;11.90;99.90;;;;;;5039430;28;20239;-81
2021/03/18 13:41:38;;;;;;;16.93;5.47;;;12.00;99.90;;;;;;5034015;28;20246;-81
2021/03/18 13:44:23;;;;;;;16.90;5.20;;;12.10;99.90;;;;;;5040421;28;20636;-81
2021/03/18 13:47:09;;;;;;;19.50;6.10;;;12.20;99.90;;;;;;5039408;28;20709;-82
2021/03/18 13:49:54;;;;;;;16.23;5.30;;;12.20;99.90;;;;;;5019750;28;20211;-81
2021/03/18 13:52:53;;;;;;;21.87;5.97;;;12.20;99.90;;;;;;5111934;27;20654;-82
2021/03/18 13:55:38;;;;;;;17.57;5.03;;;12.40;99.90;;;;;;5082699;28;20205;-81
2021/03/18 13:58:23;;;;;;;11.67;5.13;;;12.30;99.90;;;;;;5081541;28;20271;-81
2021/03/18 14:01:08;;;;;;;18.70;5.80;;;12.30;99.90;;;;;;5093243;28;20705;-81
2021/03/18 14:03:53;;;;;;;20.87;6.13;;;12.30;99.90;;;;;;5094202;28;20218;-82
2021/03/18 14:06:38;;;;;;;18.00;6.13;;;12.30;99.90;;;;;;5107845;28;20450;-81
2021/03/18 14:09:24;;;;;;;17.73;5.20;;;12.20;99.90;;;;;;5096716;28;20279;-81
2021/03/18 14:12:09;;;;;;;17.50;5.43;;;12.20;99.90;;;;;;5094905;28;20225;-81
2021/03/18 14:14:54;;;;;;;12.70;5.00;;;12.30;99.90;;;;;;5078679;28;20205;-82
2021/03/18 14:17:41;;;;;;;14.23;4.60;;;12.70;99.90;;;;;;5092635;28;20728;-82
2021/03/18 14:20:28;;;;;;;11.50;4.40;;;13.20;99.90;;;;;;5090794;28;20225;-83
2021/03/18 14:23:13;;;;;;;15.70;4.73;;;13.70;99.90;;;;;;5090537;28;20213;-83